Aurora, WV (26705)

1:26 PM EDT on May 24, 2015 (GMT -0400)
1 1/2 Mi. South of Terra Alta, Snowy Creek WV | | Change Station
CLOSE
Current Station
Personal Weather Station
Location: Terra Alta, WV
Elevation: 2842 ft
Nearby Weather Stations

Elev 2842 ft 39.40 °N, 79.58 °W | Updated 10 minutes ago

Clear
Clear
80.6 °F
Feels Like 79 °F
N
5.1
Wind Variable Wind from WNW

Today
High -- | Low -- °F
--% Chance of Precip.
Yesterday
High -- | Low -- °F
Precip. -- in
5:58 AM 8:32 PM
Waxing Crescent, 40% visible
Pressure 30.39 in
Visibility 10.0 miles
Clouds Clear
Heat Index 79 °F
Dew Point 39 °F
Humidity 23%
Rainfall 0.80 in
Snow Depth Not available.
UV 12 out of 12
Pollen 7.80 out of 12
Air Quality Not available.
Flu Activity Sporadic
METAR K2G4 241705Z AUTO 14007KT 10SM CLR 22/03 A3039 RMK AO1

More Conditions Fewer Conditions

Pressure 30.39 in
Visibility 10.0 miles
Clouds Clear
Heat Index 79 °F
Dew Point 39 °F
Humidity 23%
Rainfall 0.80 in
Snow Depth Not available.
UV 12 out of 12
Pollen 7.80 out of 12
Air Quality Not available.
Flu Activity Sporadic
METAR K2G4 241705Z AUTO 14007KT 10SM CLR 22/03 A3039 RMK AO1

More Conditions Fewer Conditions

10-Day Weather Forecast

Almanac

Astronomy

May. 24, 2015 Rise Set
Actual Time
Civil Twilight
Nautical Twilight
Astronomical Twilight
Moon
Length of Visible Light
Length of Day
Tomorrow will be .
, % of the Moon is Illuminated

Today's Extremes

State Highs State Lows

Community

WunderPhotos

Upload Photos

1,823,804 photos uploaded!

WunderBlogs® & News

Nearby

Air Quality

  Air Quality AQ Index Pollutant
Not available.

Snow Depth

Station Depth Elevation

Earthquake Activity

City Distance Mag. Time & Date
Minimum magnitude displayed is 2.5.

Coastal Water Temperatures

Place Temperature

Stations

Nearby Weather Stations

Station Location Temp. Windchill Dew Point Humidity Wind Precip. Elev Updated Type